sensor_id;sensor_type;location;lat;lon;timestamp;P1;durP1;ratioP1;P2;durP2;ratioP2
64595;SDS011;51003;51.628;6.670;2022-09-02T00:00:44;2.03;;;1.93;;
64595;SDS011;51003;51.628;6.670;2022-09-02T00:03:14;3.67;;;1.80;;
64595;SDS011;51003;51.628;6.670;2022-09-02T00:05:40;2.67;;;1.90;;
64595;SDS011;51003;51.628;6.670;2022-09-02T00:08:06;11.87;;;2.10;;
64595;SDS011;51003;51.628;6.670;2022-09-02T00:10:34;8.63;;;2.00;;
64595;SDS011;51003;51.628;6.670;2022-09-02T00:13:01;1.73;;;1.60;;
64595;SDS011;51003;51.628;6.670;2022-09-02T00:15:26;2.60;;;2.00;;
64595;SDS011;51003;51.628;6.670;2022-09-02T00:17:52;2.50;;;2.10;;
64595;SDS011;51003;51.628;6.670;2022-09-02T00:20:17;2.40;;;1.73;;
64595;SDS011;51003;51.628;6.670;2022-09-02T00:22:43;6.40;;;1.93;;
64595;SDS011;51003;51.628;6.670;2022-09-02T00:25:09;2.27;;;2.03;;
64595;SDS011;51003;51.628;6.670;2022-09-02T00:27:34;9.20;;;1.70;;
64595;SDS011;51003;51.628;6.670;2022-09-02T00:30:00;2.43;;;1.87;;
64595;SDS011;51003;51.628;6.670;2022-09-02T00:32:25;1.90;;;1.70;;
64595;SDS011;51003;51.628;6.670;2022-09-02T00:34:51;2.37;;;1.90;;
64595;SDS011;51003;51.628;6.670;2022-09-02T00:37:16;2.10;;;1.90;;
64595;SDS011;51003;51.628;6.670;2022-09-02T00:39:42;1.73;;;1.63;;
64595;SDS011;51003;51.628;6.670;2022-09-02T00:42:07;3.40;;;1.90;;
64595;SDS011;51003;51.628;6.670;2022-09-02T00:44:33;6.57;;;1.90;;
64595;SDS011;51003;51.628;6.670;2022-09-02T00:46:59;2.53;;;1.87;;
64595;SDS011;51003;51.628;6.670;2022-09-02T00:49:32;3.10;;;2.10;;
64595;SDS011;51003;51.628;6.670;2022-09-02T00:52:01;1.73;;;1.63;;
64595;SDS011;51003;51.628;6.670;2022-09-02T00:54:30;2.40;;;2.20;;
64595;SDS011;51003;51.628;6.670;2022-09-02T00:57:06;3.30;;;2.20;;
64595;SDS011;51003;51.628;6.670;2022-09-02T00:59:42;3.60;;;1.80;;
64595;SDS011;51003;51.628;6.670;2022-09-02T01:02:11;2.40;;;2.10;;
64595;SDS011;51003;51.628;6.670;2022-09-02T01:04:37;1.90;;;1.70;;
64595;SDS011;51003;51.628;6.670;2022-09-02T01:07:03;2.57;;;1.60;;
64595;SDS011;51003;51.628;6.670;2022-09-02T01:09:30;3.93;;;1.70;;
64595;SDS011;51003;51.628;6.670;2022-09-02T01:11:57;2.50;;;1.90;;
64595;SDS011;51003;51.628;6.670;2022-09-02T01:14:27;2.07;;;1.77;;
64595;SDS011;51003;51.628;6.670;2022-09-02T01:16:54;1.73;;;1.63;;
64595;SDS011;51003;51.628;6.670;2022-09-02T01:21:51;4.77;;;1.67;;
64595;SDS011;51003;51.628;6.670;2022-09-02T01:24:18;3.13;;;1.70;;
64595;SDS011;51003;51.628;6.670;2022-09-02T01:26:45;1.83;;;1.73;;
64595;SDS011;51003;51.628;6.670;2022-09-02T01:29:11;6.50;;;2.00;;
64595;SDS011;51003;51.628;6.670;2022-09-02T01:31:37;1.80;;;1.70;;
64595;SDS011;51003;51.628;6.670;2022-09-02T01:34:02;2.60;;;2.40;;
64595;SDS011;51003;51.628;6.670;2022-09-02T01:36:30;4.03;;;1.80;;
64595;SDS011;51003;51.628;6.670;2022-09-02T01:38:57;2.10;;;1.87;;
64595;SDS011;51003;51.628;6.670;2022-09-02T01:41:22;2.60;;;1.80;;
64595;SDS011;51003;51.628;6.670;2022-09-02T01:43:48;1.70;;;1.60;;
64595;SDS011;51003;51.628;6.670;2022-09-02T01:46:13;1.77;;;1.53;;
64595;SDS011;51003;51.628;6.670;2022-09-02T01:48:39;3.63;;;1.67;;
64595;SDS011;51003;51.628;6.670;2022-09-02T01:51:05;1.90;;;1.80;;
64595;SDS011;51003;51.628;6.670;2022-09-02T01:53:30;1.83;;;1.73;;
64595;SDS011;51003;51.628;6.670;2022-09-02T01:55:56;5.17;;;1.77;;
64595;SDS011;51003;51.628;6.670;2022-09-02T01:58:22;1.90;;;1.70;;
64595;SDS011;51003;51.628;6.670;2022-09-02T02:00:47;4.47;;;1.67;;
64595;SDS011;51003;51.628;6.670;2022-09-02T02:03:13;1.70;;;1.60;;
64595;SDS011;51003;51.628;6.670;2022-09-02T02:05:38;1.70;;;1.60;;
64595;SDS011;51003;51.628;6.670;2022-09-02T02:08:05;1.97;;;1.77;;
64595;SDS011;51003;51.628;6.670;2022-09-02T02:10:30;1.70;;;1.60;;
64595;SDS011;51003;51.628;6.670;2022-09-02T02:12:56;1.70;;;1.60;;
64595;SDS011;51003;51.628;6.670;2022-09-02T02:15:22;1.97;;;1.77;;
64595;SDS011;51003;51.628;6.670;2022-09-02T02:17:48;2.03;;;1.70;;
64595;SDS011;51003;51.628;6.670;2022-09-02T02:20:14;2.40;;;1.50;;
64595;SDS011;51003;51.628;6.670;2022-09-02T02:22:41;2.60;;;1.90;;
64595;SDS011;51003;51.628;6.670;2022-09-02T02:25:07;2.53;;;1.70;;
64595;SDS011;51003;51.628;6.670;2022-09-02T02:27:33;2.10;;;1.90;;
64595;SDS011;51003;51.628;6.670;2022-09-02T02:29:58;2.87;;;1.77;;
64595;SDS011;51003;51.628;6.670;2022-09-02T02:32:24;1.70;;;1.60;;
64595;SDS011;51003;51.628;6.670;2022-09-02T02:34:50;1.80;;;1.70;;
64595;SDS011;51003;51.628;6.670;2022-09-02T02:40:37;2.03;;;1.63;;
64595;SDS011;51003;51.628;6.670;2022-09-02T02:43:03;2.50;;;1.70;;
64595;SDS011;51003;51.628;6.670;2022-09-02T02:45:28;2.07;;;1.60;;
64595;SDS011;51003;51.628;6.670;2022-09-02T02:47:54;5.07;;;1.87;;
64595;SDS011;51003;51.628;6.670;2022-09-02T02:50:20;3.97;;;1.80;;
64595;SDS011;51003;51.628;6.670;2022-09-02T02:52:46;2.27;;;1.70;;
64595;SDS011;51003;51.628;6.670;2022-09-02T02:55:13;1.83;;;1.57;;
64595;SDS011;51003;51.628;6.670;2022-09-02T02:57:39;2.30;;;2.10;;
64595;SDS011;51003;51.628;6.670;2022-09-02T03:00:08;2.10;;;1.50;;
64595;SDS011;51003;51.628;6.670;2022-09-02T03:02:34;3.00;;;2.10;;
64595;SDS011;51003;51.628;6.670;2022-09-02T03:04:59;3.97;;;1.80;;
64595;SDS011;51003;51.628;6.670;2022-09-02T03:07:25;2.80;;;1.70;;
64595;SDS011;51003;51.628;6.670;2022-09-02T03:09:51;2.00;;;1.60;;
64595;SDS011;51003;51.628;6.670;2022-09-02T03:12:17;1.60;;;1.50;;
64595;SDS011;51003;51.628;6.670;2022-09-02T03:14:42;4.20;;;1.47;;
64595;SDS011;51003;51.628;6.670;2022-09-02T03:17:08;1.67;;;1.57;;
64595;SDS011;51003;51.628;6.670;2022-09-02T03:19:34;2.23;;;1.80;;
64595;SDS011;51003;51.628;6.670;2022-09-02T03:21:59;1.73;;;1.63;;
64595;SDS011;51003;51.628;6.670;2022-09-02T03:24:24;2.73;;;1.67;;
64595;SDS011;51003;51.628;6.670;2022-09-02T03:26:50;1.87;;;1.53;;
64595;SDS011;51003;51.628;6.670;2022-09-02T03:29:15;2.40;;;1.70;;
64595;SDS011;51003;51.628;6.670;2022-09-02T03:31:41;3.23;;;1.60;;
64595;SDS011;51003;51.628;6.670;2022-09-02T03:34:06;2.00;;;1.40;;
64595;SDS011;51003;51.628;6.670;2022-09-02T03:36:36;3.10;;;1.80;;
64595;SDS011;51003;51.628;6.670;2022-09-02T03:39:03;2.83;;;1.50;;
64595;SDS011;51003;51.628;6.670;2022-09-02T03:41:29;2.20;;;2.00;;
64595;SDS011;51003;51.628;6.670;2022-09-02T03:43:55;2.37;;;1.50;;
64595;SDS011;51003;51.628;6.670;2022-09-02T03:46:21;4.20;;;1.60;;
64595;SDS011;51003;51.628;6.670;2022-09-02T03:48:46;3.43;;;1.70;;
64595;SDS011;51003;51.628;6.670;2022-09-02T03:51:15;1.60;;;1.50;;
64595;SDS011;51003;51.628;6.670;2022-09-02T03:53:41;2.97;;;1.77;;
64595;SDS011;51003;51.628;6.670;2022-09-02T03:56:07;2.40;;;1.43;;
64595;SDS011;51003;51.628;6.670;2022-09-02T03:58:36;2.40;;;1.50;;
64595;SDS011;51003;51.628;6.670;2022-09-02T04:01:02;2.20;;;1.40;;
64595;SDS011;51003;51.628;6.670;2022-09-02T04:03:28;1.93;;;1.73;;
64595;SDS011;51003;51.628;6.670;2022-09-02T04:05:53;1.67;;;1.50;;
64595;SDS011;51003;51.628;6.670;2022-09-02T04:08:19;4.13;;;1.50;;
64595;SDS011;51003;51.628;6.670;2022-09-02T04:10:45;2.77;;;1.50;;
64595;SDS011;51003;51.628;6.670;2022-09-02T04:13:10;3.43;;;1.50;;
64595;SDS011;51003;51.628;6.670;2022-09-02T04:15:39;2.23;;;1.60;;
64595;SDS011;51003;51.628;6.670;2022-09-02T04:21:31;2.80;;;1.63;;
64595;SDS011;51003;51.628;6.670;2022-09-02T04:23:58;2.00;;;1.53;;
64595;SDS011;51003;51.628;6.670;2022-09-02T04:26:23;4.70;;;1.63;;
64595;SDS011;51003;51.628;6.670;2022-09-02T04:28:49;1.83;;;1.70;;
64595;SDS011;51003;51.628;6.670;2022-09-02T04:31:16;1.40;;;1.30;;
64595;SDS011;51003;51.628;6.670;2022-09-02T04:33:43;5.60;;;2.40;;
64595;SDS011;51003;51.628;6.670;2022-09-02T04:36:10;5.70;;;1.53;;
64595;SDS011;51003;51.628;6.670;2022-09-02T04:38:37;4.17;;;1.40;;
64595;SDS011;51003;51.628;6.670;2022-09-02T04:41:07;1.90;;;1.40;;
64595;SDS011;51003;51.628;6.670;2022-09-02T04:43:33;3.80;;;1.90;;
64595;SDS011;51003;51.628;6.670;2022-09-02T04:45:59;4.90;;;1.73;;
64595;SDS011;51003;51.628;6.670;2022-09-02T04:48:25;5.27;;;1.70;;
64595;SDS011;51003;51.628;6.670;2022-09-02T04:50:51;3.00;;;1.50;;
64595;SDS011;51003;51.628;6.670;2022-09-02T04:53:16;6.60;;;1.50;;
64595;SDS011;51003;51.628;6.670;2022-09-02T04:55:41;2.50;;;1.40;;
64595;SDS011;51003;51.628;6.670;2022-09-02T04:58:08;1.60;;;1.50;;
64595;SDS011;51003;51.628;6.670;2022-09-02T05:00:36;3.23;;;1.90;;
64595;SDS011;51003;51.628;6.670;2022-09-02T05:03:02;5.40;;;1.50;;
64595;SDS011;51003;51.628;6.670;2022-09-02T05:05:29;3.43;;;1.57;;
64595;SDS011;51003;51.628;6.670;2022-09-02T05:07:55;5.27;;;1.50;;
64595;SDS011;51003;51.628;6.670;2022-09-02T05:10:20;10.97;;;1.83;;
64595;SDS011;51003;51.628;6.670;2022-09-02T05:12:46;3.83;;;1.80;;
64595;SDS011;51003;51.628;6.670;2022-09-02T05:15:12;7.80;;;2.00;;
64595;SDS011;51003;51.628;6.670;2022-09-02T05:17:37;2.93;;;1.60;;
64595;SDS011;51003;51.628;6.670;2022-09-02T05:20:04;4.20;;;2.07;;
64595;SDS011;51003;51.628;6.670;2022-09-02T05:22:30;4.23;;;1.73;;
64595;SDS011;51003;51.628;6.670;2022-09-02T05:24:56;5.03;;;1.97;;
64595;SDS011;51003;51.628;6.670;2022-09-02T05:27:47;7.80;;;1.80;;
64595;SDS011;51003;51.628;6.670;2022-09-02T05:30:14;4.80;;;1.67;;
64595;SDS011;51003;51.628;6.670;2022-09-02T05:32:40;2.70;;;1.50;;
64595;SDS011;51003;51.628;6.670;2022-09-02T05:35:06;4.67;;;1.70;;
64595;SDS011;51003;51.628;6.670;2022-09-02T05:37:33;6.23;;;1.80;;
64595;SDS011;51003;51.628;6.670;2022-09-02T05:40:03;6.90;;;1.50;;
64595;SDS011;51003;51.628;6.670;2022-09-02T05:42:30;4.03;;;1.60;;
64595;SDS011;51003;51.628;6.670;2022-09-02T05:45:00;2.13;;;1.30;;
64595;SDS011;51003;51.628;6.670;2022-09-02T05:47:25;2.67;;;1.53;;
64595;SDS011;51003;51.628;6.670;2022-09-02T05:49:50;5.20;;;1.90;;
64595;SDS011;51003;51.628;6.670;2022-09-02T05:52:22;2.60;;;1.40;;
64595;SDS011;51003;51.628;6.670;2022-09-02T05:54:53;3.10;;;1.77;;
64595;SDS011;51003;51.628;6.670;2022-09-02T05:57:22;5.00;;;1.90;;
64595;SDS011;51003;51.628;6.670;2022-09-02T05:59:49;11.80;;;2.07;;
64595;SDS011;51003;51.628;6.670;2022-09-02T06:02:20;5.50;;;1.53;;
64595;SDS011;51003;51.628;6.670;2022-09-02T06:04:46;3.70;;;2.00;;
64595;SDS011;51003;51.628;6.670;2022-09-02T06:07:13;5.90;;;1.67;;
64595;SDS011;51003;51.628;6.670;2022-09-02T06:09:39;2.30;;;1.77;;
64595;SDS011;51003;51.628;6.670;2022-09-02T06:12:11;11.50;;;1.87;;
64595;SDS011;51003;51.628;6.670;2022-09-02T06:14:37;2.93;;;1.87;;
64595;SDS011;51003;51.628;6.670;2022-09-02T06:17:04;5.63;;;1.70;;
64595;SDS011;51003;51.628;6.670;2022-09-02T06:19:29;12.40;;;1.70;;
64595;SDS011;51003;51.628;6.670;2022-09-02T06:21:57;2.03;;;1.60;;
64595;SDS011;51003;51.628;6.670;2022-09-02T06:24:27;8.50;;;2.33;;
64595;SDS011;51003;51.628;6.670;2022-09-02T06:26:53;3.27;;;1.60;;
64595;SDS011;51003;51.628;6.670;2022-09-02T06:29:20;3.93;;;1.60;;
64595;SDS011;51003;51.628;6.670;2022-09-02T06:31:48;2.30;;;1.70;;
64595;SDS011;51003;51.628;6.670;2022-09-02T06:34:17;7.33;;;1.70;;
64595;SDS011;51003;51.628;6.670;2022-09-02T06:36:44;10.53;;;2.03;;
64595;SDS011;51003;51.628;6.670;2022-09-02T06:39:11;5.00;;;2.10;;
64595;SDS011;51003;51.628;6.670;2022-09-02T06:41:39;4.70;;;1.80;;
64595;SDS011;51003;51.628;6.670;2022-09-02T06:44:06;4.27;;;1.90;;
64595;SDS011;51003;51.628;6.670;2022-09-02T06:46:33;4.50;;;1.50;;
64595;SDS011;51003;51.628;6.670;2022-09-02T06:49:01;6.87;;;1.93;;
64595;SDS011;51003;51.628;6.670;2022-09-02T06:51:31;4.73;;;1.60;;
64595;SDS011;51003;51.628;6.670;2022-09-02T06:53:58;4.63;;;1.63;;
64595;SDS011;51003;51.628;6.670;2022-09-02T06:56:24;5.53;;;1.70;;
64595;SDS011;51003;51.628;6.670;2022-09-02T06:58:50;3.70;;;1.97;;
64595;SDS011;51003;51.628;6.670;2022-09-02T07:01:20;9.93;;;1.80;;
64595;SDS011;51003;51.628;6.670;2022-09-02T07:03:47;2.80;;;1.60;;
64595;SDS011;51003;51.628;6.670;2022-09-02T07:06:35;6.57;;;2.00;;
64595;SDS011;51003;51.628;6.670;2022-09-02T07:09:01;8.33;;;1.80;;
64595;SDS011;51003;51.628;6.670;2022-09-02T07:11:27;6.70;;;1.90;;
64595;SDS011;51003;51.628;6.670;2022-09-02T07:13:53;3.47;;;1.60;;
64595;SDS011;51003;51.628;6.670;2022-09-02T07:16:18;3.93;;;1.80;;
64595;SDS011;51003;51.628;6.670;2022-09-02T07:18:44;8.03;;;2.10;;
64595;SDS011;51003;51.628;6.670;2022-09-02T07:21:09;6.20;;;2.30;;
64595;SDS011;51003;51.628;6.670;2022-09-02T07:23:35;5.20;;;1.83;;
64595;SDS011;51003;51.628;6.670;2022-09-02T07:26:02;2.27;;;1.90;;
64595;SDS011;51003;51.628;6.670;2022-09-02T07:28:27;4.00;;;2.40;;
64595;SDS011;51003;51.628;6.670;2022-09-02T07:30:53;6.77;;;2.07;;
64595;SDS011;51003;51.628;6.670;2022-09-02T07:33:20;4.53;;;2.67;;
64595;SDS011;51003;51.628;6.670;2022-09-02T07:35:45;4.80;;;1.90;;
64595;SDS011;51003;51.628;6.670;2022-09-02T07:38:11;3.93;;;1.90;;
64595;SDS011;51003;51.628;6.670;2022-09-02T07:40:37;7.43;;;1.97;;
64595;SDS011;51003;51.628;6.670;2022-09-02T07:43:04;2.50;;;1.87;;
64595;SDS011;51003;51.628;6.670;2022-09-02T07:45:32;3.43;;;2.00;;
64595;SDS011;51003;51.628;6.670;2022-09-02T07:47:58;2.23;;;2.03;;
64595;SDS011;51003;51.628;6.670;2022-09-02T07:50:24;5.73;;;2.50;;
64595;SDS011;51003;51.628;6.670;2022-09-02T07:52:54;8.00;;;1.90;;
64595;SDS011;51003;51.628;6.670;2022-09-02T07:55:22;5.60;;;2.00;;
64595;SDS011;51003;51.628;6.670;2022-09-02T07:57:48;5.93;;;1.90;;
64595;SDS011;51003;51.628;6.670;2022-09-02T08:00:15;4.03;;;1.90;;
64595;SDS011;51003;51.628;6.670;2022-09-02T08:02:43;5.53;;;2.10;;
64595;SDS011;51003;51.628;6.670;2022-09-02T08:05:09;3.30;;;1.90;;
64595;SDS011;51003;51.628;6.670;2022-09-02T08:07:35;4.83;;;1.93;;
64595;SDS011;51003;51.628;6.670;2022-09-02T08:10:02;2.63;;;1.63;;
64595;SDS011;51003;51.628;6.670;2022-09-02T08:12:34;7.33;;;1.83;;
64595;SDS011;51003;51.628;6.670;2022-09-02T08:15:00;5.20;;;2.00;;
64595;SDS011;51003;51.628;6.670;2022-09-02T08:17:25;6.30;;;2.00;;
64595;SDS011;51003;51.628;6.670;2022-09-02T08:19:52;6.10;;;3.80;;
64595;SDS011;51003;51.628;6.670;2022-09-02T08:22:18;4.87;;;2.37;;
64595;SDS011;51003;51.628;6.670;2022-09-02T08:24:43;9.57;;;2.13;;
64595;SDS011;51003;51.628;6.670;2022-09-02T08:27:08;6.10;;;2.00;;
64595;SDS011;51003;51.628;6.670;2022-09-02T08:29:34;8.90;;;2.37;;
64595;SDS011;51003;51.628;6.670;2022-09-02T08:32:00;4.10;;;2.20;;
64595;SDS011;51003;51.628;6.670;2022-09-02T08:34:25;9.33;;;2.37;;
64595;SDS011;51003;51.628;6.670;2022-09-02T08:36:51;7.93;;;2.27;;
64595;SDS011;51003;51.628;6.670;2022-09-02T08:39:20;6.33;;;2.20;;
64595;SDS011;51003;51.628;6.670;2022-09-02T08:44:24;8.13;;;2.37;;
64595;SDS011;51003;51.628;6.670;2022-09-02T08:46:54;5.07;;;2.13;;
64595;SDS011;51003;51.628;6.670;2022-09-02T08:49:24;8.53;;;2.50;;
64595;SDS011;51003;51.628;6.670;2022-09-02T08:52:08;7.33;;;2.97;;
64595;SDS011;51003;51.628;6.670;2022-09-02T08:54:47;3.93;;;2.20;;
64595;SDS011;51003;51.628;6.670;2022-09-02T08:57:15;4.30;;;2.60;;
64595;SDS011;51003;51.628;6.670;2022-09-02T08:59:41;2.33;;;2.13;;
64595;SDS011;51003;51.628;6.670;2022-09-02T09:10:17;2.30;;;2.10;;
64595;SDS011;51003;51.628;6.670;2022-09-02T09:18:11;8.03;;;2.50;;
64595;SDS011;51003;51.628;6.670;2022-09-02T09:20:40;4.20;;;2.37;;
64595;SDS011;51003;51.628;6.670;2022-09-02T09:26:12;6.20;;;2.60;;
64595;SDS011;51003;51.628;6.670;2022-09-02T09:28:46;6.83;;;2.30;;
64595;SDS011;51003;51.628;6.670;2022-09-02T09:31:13;3.30;;;2.43;;
64595;SDS011;51003;51.628;6.670;2022-09-02T09:33:54;6.80;;;2.40;;
64595;SDS011;51003;51.628;6.670;2022-09-02T09:36:29;9.40;;;2.77;;
64595;SDS011;51003;51.628;6.670;2022-09-02T09:39:15;3.40;;;2.37;;
64595;SDS011;51003;51.628;6.670;2022-09-02T09:41:44;4.23;;;2.40;;
64595;SDS011;51003;51.628;6.670;2022-09-02T09:44:10;4.93;;;2.47;;
64595;SDS011;51003;51.628;6.670;2022-09-02T09:47:00;2.70;;;2.50;;
64595;SDS011;51003;51.628;6.670;2022-09-02T09:49:26;2.70;;;2.40;;
64595;SDS011;51003;51.628;6.670;2022-09-02T09:51:55;3.70;;;2.80;;
64595;SDS011;51003;51.628;6.670;2022-09-02T09:54:21;5.20;;;3.13;;
64595;SDS011;51003;51.628;6.670;2022-09-02T09:56:50;2.87;;;2.67;;
64595;SDS011;51003;51.628;6.670;2022-09-02T09:59:31;5.53;;;2.80;;
64595;SDS011;51003;51.628;6.670;2022-09-02T10:02:21;4.63;;;2.80;;
64595;SDS011;51003;51.628;6.670;2022-09-02T10:04:49;7.53;;;3.60;;
64595;SDS011;51003;51.628;6.670;2022-09-02T10:07:33;4.03;;;2.60;;
64595;SDS011;51003;51.628;6.670;2022-09-02T10:10:24;4.40;;;2.60;;
64595;SDS011;51003;51.628;6.670;2022-09-02T10:12:52;2.90;;;2.67;;
64595;SDS011;51003;51.628;6.670;2022-09-02T10:15:30;4.20;;;2.77;;
64595;SDS011;51003;51.628;6.670;2022-09-02T10:21:10;2.50;;;2.40;;
64595;SDS011;51003;51.628;6.670;2022-09-02T10:35:06;3.10;;;2.90;;
64595;SDS011;51003;51.628;6.670;2022-09-02T10:37:57;4.13;;;3.37;;
64595;SDS011;51003;51.628;6.670;2022-09-02T10:40:34;4.73;;;2.97;;
64595;SDS011;51003;51.628;6.670;2022-09-02T10:45:35;5.40;;;2.67;;
64595;SDS011;51003;51.628;6.670;2022-09-02T10:50:54;2.70;;;2.50;;
64595;SDS011;51003;51.628;6.670;2022-09-02T10:56:28;5.43;;;2.73;;
64595;SDS011;51003;51.628;6.670;2022-09-02T10:59:02;3.50;;;2.50;;
64595;SDS011;51003;51.628;6.670;2022-09-02T11:01:40;3.13;;;2.93;;
64595;SDS011;51003;51.628;6.670;2022-09-02T11:04:07;3.73;;;2.60;;
64595;SDS011;51003;51.628;6.670;2022-09-02T11:06:37;3.00;;;2.80;;
64595;SDS011;51003;51.628;6.670;2022-09-02T11:22:57;2.60;;;2.50;;
64595;SDS011;51003;51.628;6.670;2022-09-02T11:30:45;3.70;;;2.50;;
64595;SDS011;51003;51.628;6.670;2022-09-02T11:33:16;2.70;;;2.50;;
64595;SDS011;51003;51.628;6.670;2022-09-02T11:35:44;4.70;;;3.00;;
64595;SDS011;51003;51.628;6.670;2022-09-02T11:54:52;7.30;;;2.57;;
64595;SDS011;51003;51.628;6.670;2022-09-02T11:57:45;2.73;;;2.50;;
64595;SDS011;51003;51.628;6.670;2022-09-02T12:07:58;2.23;;;2.03;;
64595;SDS011;51003;51.628;6.670;2022-09-02T12:13:08;2.90;;;2.30;;
64595;SDS011;51003;51.628;6.670;2022-09-02T12:15:36;2.80;;;2.23;;
64595;SDS011;51003;51.628;6.670;2022-09-02T12:26:12;7.63;;;2.50;;
64595;SDS011;51003;51.628;6.670;2022-09-02T12:28:38;2.30;;;2.20;;
64595;SDS011;51003;51.628;6.670;2022-09-02T12:36:01;2.47;;;2.37;;
64595;SDS011;51003;51.628;6.670;2022-09-02T12:43:51;4.83;;;2.37;;
64595;SDS011;51003;51.628;6.670;2022-09-02T12:51:50;3.27;;;2.63;;
64595;SDS011;51003;51.628;6.670;2022-09-02T12:54:44;2.40;;;2.30;;
64595;SDS011;51003;51.628;6.670;2022-09-02T12:57:13;8.20;;;2.63;;
64595;SDS011;51003;51.628;6.670;2022-09-02T12:59:40;4.20;;;2.40;;
64595;SDS011;51003;51.628;6.670;2022-09-02T13:04:44;3.07;;;2.73;;
64595;SDS011;51003;51.628;6.670;2022-09-02T13:18:29;2.57;;;2.43;;
64595;SDS011;51003;51.628;6.670;2022-09-02T13:27:13;2.80;;;2.60;;
64595;SDS011;51003;51.628;6.670;2022-09-02T13:30:17;2.50;;;2.30;;
64595;SDS011;51003;51.628;6.670;2022-09-02T13:32:43;2.50;;;2.30;;
64595;SDS011;51003;51.628;6.670;2022-09-02T13:35:17;13.47;;;2.90;;
64595;SDS011;51003;51.628;6.670;2022-09-02T13:37:43;2.40;;;2.20;;
64595;SDS011;51003;51.628;6.670;2022-09-02T13:40:16;2.30;;;2.10;;
64595;SDS011;51003;51.628;6.670;2022-09-02T13:42:46;2.10;;;2.00;;
64595;SDS011;51003;51.628;6.670;2022-09-02T13:45:14;2.00;;;1.90;;
64595;SDS011;51003;51.628;6.670;2022-09-02T13:47:42;2.23;;;2.13;;
64595;SDS011;51003;51.628;6.670;2022-09-02T13:50:09;2.63;;;2.30;;
64595;SDS011;51003;51.628;6.670;2022-09-02T13:52:36;2.73;;;2.30;;
64595;SDS011;51003;51.628;6.670;2022-09-02T13:55:02;2.30;;;2.20;;
64595;SDS011;51003;51.628;6.670;2022-09-02T13:57:28;2.90;;;2.80;;
64595;SDS011;51003;51.628;6.670;2022-09-02T13:59:55;2.27;;;2.17;;
64595;SDS011;51003;51.628;6.670;2022-09-02T14:04:55;6.10;;;2.57;;
64595;SDS011;51003;51.628;6.670;2022-09-02T14:07:35;3.87;;;2.70;;
64595;SDS011;51003;51.628;6.670;2022-09-02T14:10:06;2.60;;;2.40;;
64595;SDS011;51003;51.628;6.670;2022-09-02T14:12:33;2.40;;;2.30;;
64595;SDS011;51003;51.628;6.670;2022-09-02T14:15:00;2.67;;;2.47;;
64595;SDS011;51003;51.628;6.670;2022-09-02T14:17:26;2.80;;;2.10;;
64595;SDS011;51003;51.628;6.670;2022-09-02T14:22:38;2.40;;;2.23;;
64595;SDS011;51003;51.628;6.670;2022-09-02T14:25:11;2.30;;;2.10;;
64595;SDS011;51003;51.628;6.670;2022-09-02T14:27:38;2.80;;;2.20;;
64595;SDS011;51003;51.628;6.670;2022-09-02T14:30:04;2.30;;;2.10;;
64595;SDS011;51003;51.628;6.670;2022-09-02T14:32:33;1.80;;;1.70;;
64595;SDS011;51003;51.628;6.670;2022-09-02T14:35:19;2.13;;;2.03;;
64595;SDS011;51003;51.628;6.670;2022-09-02T14:37:53;2.10;;;2.00;;
64595;SDS011;51003;51.628;6.670;2022-09-02T14:41:23;2.20;;;2.10;;
64595;SDS011;51003;51.628;6.670;2022-09-02T14:43:27;2.30;;;2.10;;
64595;SDS011;51003;51.628;6.670;2022-09-02T14:46:03;2.30;;;2.20;;
64595;SDS011;51003;51.628;6.670;2022-09-02T14:48:31;2.20;;;2.10;;
64595;SDS011;51003;51.628;6.670;2022-09-02T14:51:02;2.57;;;2.30;;
64595;SDS011;51003;51.628;6.670;2022-09-02T14:53:29;1.93;;;1.83;;
64595;SDS011;51003;51.628;6.670;2022-09-02T14:55:55;2.00;;;1.90;;
64595;SDS011;51003;51.628;6.670;2022-09-02T14:58:22;1.97;;;1.87;;
64595;SDS011;51003;51.628;6.670;2022-09-02T15:00:49;2.37;;;1.90;;
64595;SDS011;51003;51.628;6.670;2022-09-02T15:03:17;2.20;;;2.10;;
64595;SDS011;51003;51.628;6.670;2022-09-02T15:05:43;3.43;;;2.40;;
64595;SDS011;51003;51.628;6.670;2022-09-02T15:08:09;2.20;;;2.10;;
64595;SDS011;51003;51.628;6.670;2022-09-02T15:10:35;3.83;;;1.83;;
64595;SDS011;51003;51.628;6.670;2022-09-02T15:13:03;3.10;;;2.07;;
64595;SDS011;51003;51.628;6.670;2022-09-02T15:15:28;2.00;;;1.90;;
64595;SDS011;51003;51.628;6.670;2022-09-02T15:17:54;2.07;;;1.90;;
64595;SDS011;51003;51.628;6.670;2022-09-02T15:20:20;2.23;;;2.13;;
64595;SDS011;51003;51.628;6.670;2022-09-02T15:22:46;7.67;;;2.30;;
64595;SDS011;51003;51.628;6.670;2022-09-02T15:25:11;2.70;;;2.50;;
64595;SDS011;51003;51.628;6.670;2022-09-02T15:27:37;2.60;;;2.40;;
64595;SDS011;51003;51.628;6.670;2022-09-02T15:30:03;2.30;;;2.20;;
64595;SDS011;51003;51.628;6.670;2022-09-02T15:32:29;3.70;;;2.57;;
64595;SDS011;51003;51.628;6.670;2022-09-02T15:34:55;3.70;;;2.20;;
64595;SDS011;51003;51.628;6.670;2022-09-02T15:37:20;7.23;;;2.50;;
64595;SDS011;51003;51.628;6.670;2022-09-02T15:39:46;5.27;;;2.30;;
64595;SDS011;51003;51.628;6.670;2022-09-02T15:42:11;6.90;;;2.20;;
64595;SDS011;51003;51.628;6.670;2022-09-02T15:44:36;2.53;;;2.33;;
64595;SDS011;51003;51.628;6.670;2022-09-02T15:47:02;5.53;;;2.20;;
64595;SDS011;51003;51.628;6.670;2022-09-02T15:49:27;2.83;;;2.57;;
64595;SDS011;51003;51.628;6.670;2022-09-02T15:51:54;3.40;;;2.43;;
64595;SDS011;51003;51.628;6.670;2022-09-02T15:54:20;2.30;;;2.20;;
64595;SDS011;51003;51.628;6.670;2022-09-02T15:56:47;9.83;;;2.40;;
64595;SDS011;51003;51.628;6.670;2022-09-02T15:59:13;7.83;;;2.60;;
64595;SDS011;51003;51.628;6.670;2022-09-02T16:01:41;2.47;;;2.23;;
64595;SDS011;51003;51.628;6.670;2022-09-02T16:04:08;2.40;;;2.20;;
64595;SDS011;51003;51.628;6.670;2022-09-02T16:06:34;2.53;;;2.30;;
64595;SDS011;51003;51.628;6.670;2022-09-02T16:09:03;2.60;;;2.00;;
64595;SDS011;51003;51.628;6.670;2022-09-02T16:11:30;2.37;;;2.27;;
64595;SDS011;51003;51.628;6.670;2022-09-02T16:13:55;2.77;;;2.40;;
64595;SDS011;51003;51.628;6.670;2022-09-02T16:16:20;4.00;;;2.33;;
64595;SDS011;51003;51.628;6.670;2022-09-02T16:18:50;2.37;;;2.27;;
64595;SDS011;51003;51.628;6.670;2022-09-02T16:21:16;2.30;;;2.20;;
64595;SDS011;51003;51.628;6.670;2022-09-02T16:23:42;2.40;;;2.30;;
64595;SDS011;51003;51.628;6.670;2022-09-02T16:28:50;2.53;;;2.17;;
64595;SDS011;51003;51.628;6.670;2022-09-02T16:31:18;5.43;;;3.47;;
64595;SDS011;51003;51.628;6.670;2022-09-02T16:33:51;5.00;;;4.50;;
64595;SDS011;51003;51.628;6.670;2022-09-02T16:36:17;3.37;;;3.07;;
64595;SDS011;51003;51.628;6.670;2022-09-02T16:38:44;4.00;;;3.70;;
64595;SDS011;51003;51.628;6.670;2022-09-02T16:41:29;3.13;;;2.93;;
64595;SDS011;51003;51.628;6.670;2022-09-02T16:43:58;4.20;;;2.60;;
64595;SDS011;51003;51.628;6.670;2022-09-02T16:46:25;2.90;;;2.70;;
64595;SDS011;51003;51.628;6.670;2022-09-02T16:48:51;3.03;;;2.70;;
64595;SDS011;51003;51.628;6.670;2022-09-02T16:51:17;3.17;;;2.43;;
64595;SDS011;51003;51.628;6.670;2022-09-02T16:53:42;3.23;;;2.33;;
64595;SDS011;51003;51.628;6.670;2022-09-02T16:56:11;4.10;;;2.40;;
64595;SDS011;51003;51.628;6.670;2022-09-02T16:58:38;4.70;;;2.40;;
64595;SDS011;51003;51.628;6.670;2022-09-02T17:01:04;2.57;;;2.47;;
64595;SDS011;51003;51.628;6.670;2022-09-02T17:03:31;2.60;;;2.40;;
64595;SDS011;51003;51.628;6.670;2022-09-02T17:05:57;4.00;;;2.20;;
64595;SDS011;51003;51.628;6.670;2022-09-02T17:08:22;2.57;;;2.37;;
64595;SDS011;51003;51.628;6.670;2022-09-02T17:10:48;2.60;;;2.40;;
64595;SDS011;51003;51.628;6.670;2022-09-02T17:13:13;3.00;;;2.20;;
64595;SDS011;51003;51.628;6.670;2022-09-02T17:15:39;3.77;;;2.50;;
64595;SDS011;51003;51.628;6.670;2022-09-02T17:18:07;3.67;;;2.80;;
64595;SDS011;51003;51.628;6.670;2022-09-02T17:20:35;2.80;;;2.60;;
64595;SDS011;51003;51.628;6.670;2022-09-02T17:23:00;2.60;;;2.40;;